createdAt,value
2023-04-27T00:01:15.082Z,101669.88
2023-04-27T00:03:42.823Z,101674.25
2023-04-27T00:06:10.190Z,101661.09
2023-04-27T00:08:37.976Z,101672.50
2023-04-27T00:11:05.328Z,101664.59
2023-04-27T00:13:32.440Z,101655.84
2023-04-27T00:16:03.621Z,101657.59
2023-04-27T00:18:32.260Z,101668.13
2023-04-27T00:20:59.536Z,101658.41
2023-04-27T00:23:27.018Z,101661.09
2023-04-27T00:25:54.328Z,101668.97
2023-04-27T00:28:21.740Z,101666.31
2023-04-27T00:30:49.323Z,101667.19
2023-04-27T00:33:17.605Z,101664.53
2023-04-27T00:35:44.582Z,101658.41
2023-04-27T00:38:12.333Z,101657.53
2023-04-27T00:40:40.081Z,101654.00
2023-04-27T00:43:08.817Z,101657.47
2023-04-27T00:45:43.041Z,101654.00
2023-04-27T00:48:13.775Z,101644.31
2023-04-27T00:50:41.288Z,101644.31
2023-04-27T00:53:09.265Z,101639.06
2023-04-27T00:55:36.455Z,101625.91
2023-04-27T00:58:08.348Z,101638.16
2023-04-27T01:00:40.277Z,101632.84
2023-04-27T01:03:08.130Z,101627.59
2023-04-27T01:05:37.593Z,101632.03
2023-04-27T01:08:05.479Z,101626.75
2023-04-27T01:10:32.579Z,101624.13
2023-04-27T01:13:00.139Z,101617.13
2023-04-27T01:15:27.773Z,101614.50
2023-04-27T01:17:59.428Z,101616.25
2023-04-27T01:20:32.699Z,101618.88
2023-04-27T01:23:00.205Z,101614.50
2023-04-27T01:25:27.861Z,101608.31
2023-04-27T01:27:55.192Z,101611.81
2023-04-27T01:30:24.826Z,101619.69
2023-04-27T01:32:52.219Z,101615.31
2023-04-27T01:35:20.007Z,101607.41
2023-04-27T01:37:47.118Z,101606.53
2023-04-27T01:40:14.376Z,101599.53
2023-04-27T01:42:41.452Z,101597.75
2023-04-27T01:45:09.796Z,101591.63
2023-04-27T01:47:37.988Z,101594.25
2023-04-27T01:50:06.620Z,101591.63
2023-04-27T01:52:33.761Z,101589.00
2023-04-27T01:55:02.826Z,101596.00
2023-04-27T01:57:30.510Z,101594.25
2023-04-27T01:59:57.628Z,101595.13
2023-04-27T02:02:24.976Z,101602.97
2023-04-27T02:04:52.502Z,101593.38
2023-04-27T02:07:20.136Z,101591.63
2023-04-27T02:09:47.439Z,101596.03
2023-04-27T02:12:14.797Z,101593.38
2023-04-27T02:14:41.896Z,101595.13
2023-04-27T02:17:08.991Z,101588.94
2023-04-27T02:19:36.768Z,101581.06
2023-04-27T02:22:05.793Z,101582.84
2023-04-27T02:24:32.935Z,101582.81
2023-04-27T02:27:01.295Z,101579.31
2023-04-27T02:29:32.028Z,101579.28
2023-04-27T02:31:59.698Z,101576.66
2023-04-27T02:34:26.908Z,101574.03
2023-04-27T02:36:54.245Z,101569.66
2023-04-27T02:39:21.375Z,101578.41
2023-04-27T02:41:48.532Z,101574.03
2023-04-27T02:44:15.811Z,101581.91
2023-04-27T02:46:46.086Z,101580.97
2023-04-27T02:49:13.508Z,101574.84
2023-04-27T02:51:40.992Z,101570.44
2023-04-27T02:54:09.372Z,101569.50
2023-04-27T02:56:36.489Z,101575.66
2023-04-27T02:59:04.202Z,101575.59
2023-04-27T03:01:31.544Z,101577.34
2023-04-27T03:03:59.188Z,101569.41
2023-04-27T03:06:26.366Z,101564.13
2023-04-27T03:08:53.817Z,101565.00
2023-04-27T03:11:21.195Z,101577.25
2023-04-27T03:13:48.348Z,101566.72
2023-04-27T03:16:15.476Z,101568.41
2023-04-27T03:18:42.665Z,101576.31
2023-04-27T03:21:13.606Z,101572.69
2023-04-27T03:23:46.832Z,101571.84
2023-04-27T03:26:15.237Z,101555.25
2023-04-27T03:28:42.733Z,101558.75
2023-04-27T03:31:16.060Z,101558.66
2023-04-27T03:33:43.374Z,101562.19
2023-04-27T03:36:13.214Z,101556.84
2023-04-27T03:38:41.960Z,101569.19
2023-04-27T03:41:09.103Z,101561.31
2023-04-27T03:43:36.523Z,101569.09
2023-04-27T03:46:03.740Z,101559.44
2023-04-27T03:48:31.227Z,101565.56
2023-04-27T03:50:58.354Z,101558.56
2023-04-27T03:53:25.540Z,101556.75
2023-04-27T03:55:52.817Z,101548.88
2023-04-27T03:58:20.114Z,101550.59
2023-04-27T04:01:06.541Z,101540.97
2023-04-27T04:03:33.859Z,101549.66
2023-04-27T04:06:01.481Z,101544.44
2023-04-27T04:08:29.292Z,101544.41
2023-04-27T04:11:01.059Z,101543.50
2023-04-27T04:13:30.798Z,101541.75
2023-04-27T04:16:09.486Z,101546.13
2023-04-27T04:18:37.351Z,101541.78
2023-04-27T04:21:06.547Z,101543.53
2023-04-27T04:23:33.592Z,101546.13
2023-04-27T04:26:02.407Z,101540.03
2023-04-27T04:28:36.881Z,101547.03
2023-04-27T04:31:06.666Z,101540.03
2023-04-27T04:33:34.473Z,101534.75
2023-04-27T04:36:05.341Z,101535.59
2023-04-27T04:38:33.687Z,101533.00
2023-04-27T04:41:02.508Z,101536.50
2023-04-27T04:43:32.482Z,101537.38
2023-04-27T04:46:02.478Z,101540.00
2023-04-27T04:48:29.801Z,101540.88
2023-04-27T04:50:57.417Z,101542.59
2023-04-27T04:53:24.585Z,101547.78
2023-04-27T04:55:51.763Z,101541.72
2023-04-27T04:58:19.084Z,101546.91
2023-04-27T05:00:46.239Z,101543.47
2023-04-27T05:03:13.911Z,101534.66
2023-04-27T05:05:41.138Z,101543.38
2023-04-27T05:08:08.289Z,101545.13
2023-04-27T05:10:35.367Z,101535.53
2023-04-27T05:13:03.146Z,101533.78
2023-04-27T05:15:31.573Z,101534.66
2023-04-27T05:17:58.942Z,101539.88
2023-04-27T05:20:29.406Z,101539.88
2023-04-27T05:22:56.972Z,101546.91
2023-04-27T05:25:24.073Z,101537.28
2023-04-27T05:27:51.566Z,101543.41
2023-04-27T05:30:24.725Z,101541.72
2023-04-27T05:32:51.978Z,101540.84
2023-04-27T05:35:19.093Z,101537.34
2023-04-27T05:37:48.783Z,101549.59
2023-04-27T05:40:15.919Z,101545.25
2023-04-27T05:42:43.040Z,101548.75
2023-04-27T05:45:10.977Z,101550.59
2023-04-27T05:47:49.883Z,101547.97
2023-04-27T05:50:22.098Z,101557.50
2023-04-27T05:52:49.127Z,101564.47
2023-04-27T05:55:19.243Z,101554.88
2023-04-27T05:57:57.163Z,101574.16
2023-04-27T06:00:43.104Z,101565.47
2023-04-27T06:03:10.504Z,101570.75
2023-04-27T06:05:38.206Z,101570.75
2023-04-27T06:08:11.833Z,101576.84
2023-04-27T06:10:44.345Z,101579.53
2023-04-27T06:13:11.923Z,101581.38
2023-04-27T06:15:40.613Z,101586.72
2023-04-27T06:18:08.045Z,101585.84
2023-04-27T06:20:35.591Z,101584.19
2023-04-27T06:23:07.962Z,101583.38
2023-04-27T06:25:40.534Z,101587.84
2023-04-27T06:28:07.765Z,101582.69
2023-04-27T06:31:18.336Z,101593.97
2023-04-27T06:33:48.503Z,101596.75
2023-04-27T06:36:18.578Z,101594.97
2023-04-27T06:38:45.939Z,101597.59
2023-04-27T06:41:13.297Z,101580.16
2023-04-27T06:43:40.529Z,101582.88
2023-04-27T06:46:10.026Z,101591.72
2023-04-27T06:51:27.044Z,101583.00
2023-04-27T06:54:09.181Z,101576.88
2023-04-27T06:56:39.563Z,101582.16
2023-04-27T06:59:12.506Z,101590.06
2023-04-27T07:01:44.541Z,101589.25
2023-04-27T07:04:18.678Z,101589.31
2023-04-27T07:06:48.923Z,101594.63
2023-04-27T07:09:27.428Z,101591.16
2023-04-27T07:11:55.607Z,101592.94
2023-04-27T07:14:32.781Z,101594.75
2023-04-27T07:17:02.339Z,101596.50
2023-04-27T07:19:30.025Z,101587.56
2023-04-27T07:22:02.740Z,101592.97
2023-04-27T07:24:32.406Z,101600.00
2023-04-27T07:27:06.158Z,101607.03
2023-04-27T07:29:34.359Z,101606.16
2023-04-27T07:32:02.327Z,101598.28
2023-04-27T07:34:49.227Z,101607.03
2023-04-27T07:37:29.184Z,101602.69
2023-04-27T07:40:02.829Z,101594.75
2023-04-27T07:42:34.675Z,101586.03
2023-04-27T07:45:05.164Z,101586.91
2023-04-27T07:47:42.846Z,101597.41
2023-04-27T07:50:26.599Z,101595.63
2023-04-27T07:52:56.923Z,101586.91
2023-04-27T07:55:32.916Z,101588.59
2023-04-27T08:00:56.340Z,101588.66
2023-04-27T08:03:24.215Z,101592.19
2023-04-27T08:05:59.838Z,101579.91
2023-04-27T08:08:30.359Z,101588.66
2023-04-27T08:11:00.532Z,101587.81
2023-04-27T08:13:27.818Z,101590.44
2023-04-27T08:15:58.765Z,101593.94
2023-04-27T08:18:27.405Z,101587.78
2023-04-27T08:20:56.769Z,101592.13
2023-04-27T08:23:28.613Z,101595.63
2023-04-27T08:26:01.627Z,101584.03
2023-04-27T08:28:33.613Z,101590.16
2023-04-27T08:31:03.718Z,101583.81
2023-04-27T08:33:30.815Z,101584.66
2023-04-27T08:36:10.393Z,101582.03
2023-04-27T08:38:40.010Z,101583.78
2023-04-27T08:41:20.363Z,101584.50
2023-04-27T08:43:55.647Z,101590.66
2023-04-27T08:46:27.221Z,101586.66
2023-04-27T08:48:55.125Z,101595.47
2023-04-27T08:51:22.909Z,101588.97
2023-04-27T08:53:53.145Z,101591.50
2023-04-27T08:56:20.987Z,101587.09
2023-04-27T08:58:49.981Z,101588.97
2023-04-27T09:01:17.318Z,101588.50
2023-04-27T09:03:50.196Z,101591.06
2023-04-27T09:06:18.627Z,101586.59
2023-04-27T09:08:48.016Z,101592.44
2023-04-27T09:11:28.358Z,101592.50
2023-04-27T09:13:55.975Z,101601.66
2023-04-27T09:16:24.842Z,101589.88
2023-04-27T09:18:53.295Z,101596.81
2023-04-27T09:21:32.529Z,101586.84
2023-04-27T09:24:12.485Z,101590.22
2023-04-27T09:26:40.423Z,101594.69
2023-04-27T09:29:08.571Z,101593.88
2023-04-27T09:31:36.441Z,101592.13
2023-04-27T09:34:04.207Z,101599.84
2023-04-27T09:36:32.822Z,101601.03
2023-04-27T09:39:04.916Z,101596.47
2023-04-27T09:41:33.413Z,101609.50
2023-04-27T09:44:02.268Z,101596.28
2023-04-27T09:46:33.433Z,101596.00
2023-04-27T09:49:04.629Z,101597.75
2023-04-27T09:51:32.080Z,101598.03
2023-04-27T09:54:05.863Z,101596.75
2023-04-27T09:56:41.984Z,101597.94
2023-04-27T09:59:50.775Z,101599.94
2023-04-27T10:02:25.296Z,101604.28
2023-04-27T10:05:02.981Z,101595.03
2023-04-27T10:07:32.218Z,101608.72
2023-04-27T10:10:03.321Z,101594.41
2023-04-27T10:12:38.343Z,101599.22
2023-04-27T10:15:16.919Z,101599.13
2023-04-27T10:17:51.379Z,101598.28
2023-04-27T10:20:29.916Z,101594.00
2023-04-27T10:22:57.039Z,101596.47
2023-04-27T10:25:32.074Z,101597.44
2023-04-27T10:28:01.661Z,101589.25
2023-04-27T10:30:34.698Z,101593.09
2023-04-27T10:33:07.517Z,101585.00
2023-04-27T10:35:40.756Z,101597.06
2023-04-27T10:38:16.471Z,101601.28
2023-04-27T10:41:01.767Z,101600.91
2023-04-27T10:43:34.366Z,101610.47
2023-04-27T10:46:16.155Z,101597.75
2023-04-27T10:48:44.691Z,101597.09
2023-04-27T10:51:17.851Z,101597.38
2023-04-27T10:53:45.096Z,101596.03
2023-04-27T10:56:13.420Z,101596.66
2023-04-27T10:58:48.895Z,101586.94
2023-04-27T11:01:27.471Z,101601.97
2023-04-27T11:03:59.894Z,101587.84
2023-04-27T11:06:28.682Z,101591.75
2023-04-27T11:08:56.819Z,101585.44
2023-04-27T11:11:24.494Z,101570.56
2023-04-27T11:13:55.775Z,101568.16
2023-04-27T11:16:24.971Z,101562.81
2023-04-27T11:18:52.656Z,101567.69
2023-04-27T11:21:22.245Z,101565.91
2023-04-27T11:23:52.392Z,101562.66
2023-04-27T11:26:26.458Z,101557.78
2023-04-27T11:29:12.574Z,101555.94
2023-04-27T11:31:47.566Z,101557.25
2023-04-27T11:34:19.326Z,101559.91
2023-04-27T11:37:07.099Z,101548.88
2023-04-27T11:39:41.857Z,101537.25
2023-04-27T11:42:25.056Z,101547.63
2023-04-27T11:45:08.373Z,101540.97
2023-04-27T11:47:36.225Z,101538.75
2023-04-27T11:50:07.415Z,101534.97
2023-04-27T11:52:35.738Z,101542.41
2023-04-27T11:55:09.152Z,101532.50
2023-04-27T11:57:37.012Z,101530.22
2023-04-27T12:00:11.498Z,101525.31
2023-04-27T12:02:42.997Z,101518.38
2023-04-27T12:05:12.541Z,101524.00
2023-04-27T12:07:40.406Z,101521.34
2023-04-27T12:10:08.358Z,101516.00
2023-04-27T12:12:36.250Z,101511.28
2023-04-27T12:15:03.543Z,101513.09
2023-04-27T12:17:30.746Z,101521.78
2023-04-27T12:19:58.127Z,101508.84
2023-04-27T12:22:25.292Z,101512.56
2023-04-27T12:24:52.620Z,101499.72
2023-04-27T12:27:19.876Z,101508.09
2023-04-27T12:29:47.119Z,101515.09
2023-04-27T12:32:14.507Z,101507.53
2023-04-27T12:34:42.971Z,101499.34
2023-04-27T12:37:10.001Z,101505.44
2023-04-27T12:39:37.229Z,101501.53
2023-04-27T12:42:04.352Z,101501.00
2023-04-27T12:44:31.422Z,101498.72
2023-04-27T12:46:58.521Z,101507.22
2023-04-27T12:49:25.749Z,101499.56
2023-04-27T12:51:54.453Z,101510.94
2023-04-27T12:54:21.783Z,101498.84
2023-04-27T12:56:49.030Z,101497.81
2023-04-27T12:59:17.171Z,101495.66
2023-04-27T13:01:46.002Z,101504.00
2023-04-27T13:04:20.316Z,101488.22
2023-04-27T13:06:48.316Z,101487.28
2023-04-27T13:09:17.059Z,101480.25
2023-04-27T13:11:44.355Z,101486.19
2023-04-27T13:14:13.412Z,101479.75
2023-04-27T13:16:42.537Z,101486.94
2023-04-27T13:19:09.674Z,101473.50
2023-04-27T13:21:37.016Z,101473.31
2023-04-27T13:24:04.362Z,101471.28
2023-04-27T13:26:33.897Z,101473.03
2023-04-27T13:29:02.329Z,101487.03
2023-04-27T13:31:33.163Z,101475.34
2023-04-27T13:34:01.328Z,101477.84
2023-04-27T13:36:29.593Z,101465.81
2023-04-27T13:38:57.091Z,101452.81
2023-04-27T13:41:24.326Z,101452.81
2023-04-27T13:43:51.460Z,101448.34
2023-04-27T13:46:18.724Z,101445.94
2023-04-27T13:48:45.961Z,101449.28
2023-04-27T13:51:13.256Z,101448.88
2023-04-27T13:53:40.317Z,101438.19
2023-04-27T13:56:07.390Z,101445.22
2023-04-27T13:58:34.672Z,101446.09
2023-04-27T14:01:02.084Z,101442.25
2023-04-27T14:03:30.002Z,101441.03
2023-04-27T14:05:57.350Z,101437.94
2023-04-27T14:08:24.480Z,101442.13
2023-04-27T14:10:51.569Z,101452.28
2023-04-27T14:13:19.265Z,101430.97
2023-04-27T14:15:49.510Z,101446.97
2023-04-27T14:18:16.796Z,101444.53
2023-04-27T14:20:44.917Z,101441.94
2023-04-27T14:23:11.957Z,101438.88
2023-04-27T14:25:39.370Z,101431.06
2023-04-27T14:28:09.747Z,101438.66
2023-04-27T14:30:38.644Z,101433.38
2023-04-27T14:33:05.768Z,101434.53
2023-04-27T14:35:35.965Z,101437.69
2023-04-27T14:38:03.905Z,101441.94
2023-04-27T14:40:31.887Z,101439.63
2023-04-27T14:42:59.509Z,101430.16
2023-04-27T14:45:33.526Z,101417.88
2023-04-27T14:48:07.710Z,101426.56
2023-04-27T14:50:34.977Z,101431.88
2023-04-27T14:53:02.070Z,101422.38
2023-04-27T14:55:32.164Z,101410.22
2023-04-27T14:57:59.238Z,101408.31
2023-04-27T15:00:26.412Z,101415.97
2023-04-27T15:02:54.580Z,101414.16
2023-04-27T15:05:21.778Z,101415.97
2023-04-27T15:07:48.915Z,101409.63
2023-04-27T15:10:16.146Z,101404.72
2023-04-27T15:12:43.279Z,101409.88
2023-04-27T15:15:10.697Z,101400.00
2023-04-27T15:17:37.818Z,101399.78
2023-04-27T15:20:06.034Z,101402.28
2023-04-27T15:22:33.166Z,101398.84
2023-04-27T15:25:00.272Z,101390.78
2023-04-27T15:27:27.722Z,101382.56
2023-04-27T15:29:55.149Z,101381.03
2023-04-27T15:32:24.747Z,101379.19
2023-04-27T15:34:52.041Z,101374.28
2023-04-27T15:37:19.395Z,101367.38
2023-04-27T15:39:46.743Z,101369.47
2023-04-27T15:42:13.811Z,101367.84
2023-04-27T15:44:40.843Z,101362.03
2023-04-27T15:47:08.140Z,101349.97
2023-04-27T15:49:49.872Z,101356.75
2023-04-27T15:52:23.781Z,101347.66
2023-04-27T15:54:51.113Z,101349.91
2023-04-27T15:57:21.319Z,101353.00
2023-04-27T15:59:48.577Z,101346.19
2023-04-27T16:02:16.104Z,101348.03
2023-04-27T16:04:43.410Z,101355.50
2023-04-27T16:07:10.549Z,101359.56
2023-04-27T16:09:37.804Z,101359.16
2023-04-27T16:12:05.443Z,101368.88
2023-04-27T16:14:32.722Z,101354.94
2023-04-27T16:17:02.675Z,101362.38
2023-04-27T16:19:30.313Z,101352.88
2023-04-27T16:21:57.391Z,101368.69
2023-04-27T16:24:25.699Z,101367.34
2023-04-27T16:26:52.895Z,101357.28
2023-04-27T16:29:20.043Z,101357.69
2023-04-27T16:31:50.288Z,101354.31
2023-04-27T16:34:17.372Z,101359.13
2023-04-27T16:36:44.700Z,101356.13
2023-04-27T16:39:11.964Z,101362.94
2023-04-27T16:41:39.183Z,101368.38
2023-04-27T16:44:07.242Z,101366.66
2023-04-27T16:46:34.374Z,101359.38
2023-04-27T16:49:03.833Z,101359.38
2023-04-27T16:51:31.264Z,101355.72
2023-04-27T16:53:58.584Z,101360.09
2023-04-27T16:56:27.637Z,101365.41
2023-04-27T16:58:55.017Z,101378.41
2023-04-27T17:01:24.374Z,101380.22
2023-04-27T17:03:51.780Z,101381.47
2023-04-27T17:06:19.147Z,101370.75
2023-04-27T17:08:46.316Z,101357.38
2023-04-27T17:11:20.024Z,101364.31
2023-04-27T17:13:49.679Z,101380.03
2023-04-27T17:16:18.288Z,101385.13
2023-04-27T17:18:49.716Z,101385.00
2023-04-27T17:21:17.499Z,101390.53
2023-04-27T17:23:47.635Z,101390.53
2023-04-27T17:26:19.986Z,101386.13
2023-04-27T17:28:47.858Z,101387.81
2023-04-27T17:31:15.783Z,101387.03
2023-04-27T17:33:43.840Z,101392.41
2023-04-27T17:36:11.631Z,101411.03
2023-04-27T17:38:38.750Z,101412.56
2023-04-27T17:41:06.866Z,101409.06
2023-04-27T17:43:34.176Z,101412.69
2023-04-27T17:46:01.171Z,101423.31
2023-04-27T17:48:28.326Z,101432.16
2023-04-27T17:50:55.435Z,101434.81
2023-04-27T17:53:22.580Z,101445.72
2023-04-27T17:55:49.620Z,101447.44
2023-04-27T17:58:19.623Z,101450.88
2023-04-27T18:00:46.733Z,101454.47
2023-04-27T18:03:14.041Z,101465.97
2023-04-27T18:05:41.677Z,101468.69
2023-04-27T18:08:08.698Z,101471.31
2023-04-27T18:10:36.390Z,101479.38
2023-04-27T18:13:03.681Z,101491.81
2023-04-27T18:15:30.880Z,101504.06
2023-04-27T18:17:58.069Z,101513.00
2023-04-27T18:20:27.324Z,101525.28
2023-04-27T18:22:54.965Z,101527.88
2023-04-27T18:25:22.041Z,101533.13
2023-04-27T18:27:55.358Z,101543.69
2023-04-27T18:30:25.718Z,101546.38
2023-04-27T18:32:52.885Z,101541.16
2023-04-27T18:35:20.243Z,101532.28
2023-04-27T18:37:48.505Z,101537.59
2023-04-27T18:40:21.267Z,101543.78
2023-04-27T18:42:49.031Z,101543.78
2023-04-27T18:45:16.360Z,101553.53
2023-04-27T18:47:46.221Z,101562.28
2023-04-27T18:50:14.015Z,101573.69
2023-04-27T18:52:43.335Z,101572.81
2023-04-27T18:55:17.549Z,101572.81
2023-04-27T18:57:45.226Z,101559.63
2023-04-27T19:00:13.198Z,101563.13
2023-04-27T19:02:40.843Z,101566.69
2023-04-27T19:05:12.821Z,101571.94
2023-04-27T19:07:41.079Z,101571.94
2023-04-27T19:10:09.855Z,101577.22
2023-04-27T19:12:37.103Z,101583.38
2023-04-27T19:15:04.936Z,101586.88
2023-04-27T19:17:32.296Z,101583.38
2023-04-27T19:20:04.800Z,101588.69
2023-04-27T19:22:34.447Z,101586.88
2023-04-27T19:25:01.730Z,101592.16
2023-04-27T19:27:29.232Z,101596.56
2023-04-27T19:29:58.558Z,101604.47
2023-04-27T19:32:27.685Z,101623.81
2023-04-27T19:34:56.443Z,101609.78
2023-04-27T19:37:27.376Z,101614.16
2023-04-27T19:39:54.695Z,101621.19
2023-04-27T19:42:24.992Z,101618.56
2023-04-27T19:44:52.252Z,101619.44
2023-04-27T19:47:19.427Z,101615.91
2023-04-27T19:49:46.748Z,101615.03
2023-04-27T19:52:17.087Z,101620.31
2023-04-27T19:54:46.514Z,101612.41
2023-04-27T19:57:13.503Z,101608.88
2023-04-27T19:59:42.334Z,101613.25
2023-04-27T20:02:12.641Z,101617.66
2023-04-27T20:04:41.707Z,101622.09
2023-04-27T20:07:12.822Z,101625.56
2023-04-27T20:09:40.519Z,101626.41
2023-04-27T20:12:37.218Z,101622.03
2023-04-27T20:15:09.670Z,101622.03
2023-04-27T20:17:37.219Z,101629.88
2023-04-27T20:20:10.783Z,101641.28
2023-04-27T20:22:39.568Z,101636.97
2023-04-27T20:25:09.212Z,101644.03
2023-04-27T20:27:37.293Z,101644.84
2023-04-27T20:30:06.104Z,101645.69
2023-04-27T20:32:33.510Z,101646.66
2023-04-27T20:35:02.706Z,101650.09
2023-04-27T20:37:30.550Z,101646.66
2023-04-27T20:39:58.085Z,101648.34
2023-04-27T20:42:25.581Z,101643.94
2023-04-27T20:44:55.041Z,101658.00
2023-04-27T20:47:22.674Z,101657.97
2023-04-27T20:49:50.986Z,101664.22
2023-04-27T20:52:18.232Z,101651.88
2023-04-27T20:54:49.914Z,101645.75
2023-04-27T20:57:17.099Z,101650.16
2023-04-27T20:59:45.775Z,101646.66
2023-04-27T21:02:15.367Z,101644.84
2023-04-27T21:04:43.975Z,101648.41
2023-04-27T21:07:11.872Z,101644.00
2023-04-27T21:09:39.280Z,101642.28
2023-04-27T21:12:10.632Z,101648.41
2023-04-27T21:14:41.915Z,101636.09
2023-04-27T21:17:11.224Z,101640.50
2023-04-27T21:19:43.793Z,101644.00
2023-04-27T21:22:12.025Z,101638.69
2023-04-27T21:24:45.202Z,101648.31
2023-04-27T21:27:13.013Z,101657.06
2023-04-27T21:29:40.964Z,101650.97
2023-04-27T21:32:10.098Z,101635.19
2023-04-27T21:34:37.415Z,101646.53
2023-04-27T21:37:05.993Z,101641.28
2023-04-27T21:39:33.491Z,101649.16
2023-04-27T21:42:01.053Z,101647.44
2023-04-27T21:44:28.804Z,101655.38
2023-04-27T21:46:57.055Z,101647.44
2023-04-27T21:49:24.670Z,101653.50
2023-04-27T21:51:52.877Z,101649.19
2023-04-27T21:54:20.479Z,101648.31
2023-04-27T21:56:48.441Z,101648.34
2023-04-27T21:59:16.840Z,101643.03
2023-04-27T22:01:45.435Z,101652.72
2023-04-27T22:04:13.178Z,101652.69
2023-04-27T22:06:43.089Z,101644.66
2023-04-27T22:09:12.639Z,101647.31
2023-04-27T22:11:40.539Z,101647.41
2023-04-27T22:14:08.680Z,101643.91
2023-04-27T22:16:36.878Z,101644.78
2023-04-27T22:19:04.421Z,101647.31
2023-04-27T22:21:31.980Z,101644.78
2023-04-27T22:23:59.648Z,101653.56
2023-04-27T22:26:27.253Z,101652.72
2023-04-27T22:28:54.653Z,101662.28
2023-04-27T22:31:22.813Z,101649.19
2023-04-27T22:33:56.122Z,101652.53
2023-04-27T22:36:24.607Z,101654.38
2023-04-27T22:38:52.740Z,101658.72
2023-04-27T22:41:21.398Z,101655.22
2023-04-27T22:43:49.988Z,101664.94
2023-04-27T22:46:17.788Z,101662.28
2023-04-27T22:48:45.379Z,101657.91
2023-04-27T22:51:12.943Z,101659.66
2023-04-27T22:53:43.514Z,101663.22
2023-04-27T22:56:10.988Z,101670.22
2023-04-27T22:58:38.322Z,101666.72
2023-04-27T23:01:06.025Z,101668.44
2023-04-27T23:03:33.664Z,101664.03
2023-04-27T23:06:01.107Z,101663.22
2023-04-27T23:08:29.269Z,101671.13
2023-04-27T23:10:57.137Z,101665.00
2023-04-27T23:13:27.886Z,101669.41
2023-04-27T23:15:56.110Z,101665.00
2023-04-27T23:18:23.807Z,101672.91
2023-04-27T23:20:55.363Z,101666.75
2023-04-27T23:23:23.313Z,101664.13
2023-04-27T23:25:51.408Z,101660.56
2023-04-27T23:28:19.529Z,101662.34
2023-04-27T23:30:55.881Z,101656.16
2023-04-27T23:33:24.730Z,101651.78
2023-04-27T23:35:54.052Z,101653.59
2023-04-27T23:38:23.438Z,101661.44
2023-04-27T23:40:51.310Z,101666.72
2023-04-27T23:43:21.426Z,101665.88
2023-04-27T23:45:51.261Z,101663.25
2023-04-27T23:48:20.141Z,101663.25
2023-04-27T23:50:48.094Z,101661.50
2023-04-27T23:53:15.903Z,101657.13
2023-04-27T23:55:43.616Z,101660.59
2023-04-27T23:58:11.507Z,101662.41
